»·PEaware :: N5952C KSBA-KBUR

N5952C :: KSBA-KBUR

FLIGHT INFORMATION

Flight Status: Arrived
Operator: Privately registered:
United States
More flights under this callsign
Pilot: Loren F. (432)
Aircraft: CESSNA 172 SKYHAWK
(C172)
More flights by this aircraft type
Origin: KSBA Santa Barbara Mun
United States
Destination: KBUR Bob Hope-Burbank
United States
More flights between these airports :: More routes between these airports
Route: +
File this flight plan on PilotEdge
Remarks: FF
Altitude:
(Current/Filed)
7,500ft
Speed:
(Current/Filed)
0kts
Departed: 10-Jan-18 02:25 PM
Arrived: 10-Jan-18 03:13 PM
Distance/Time
Traveled:
75nm/0:48
Distance/Time
To Go:
Arrived

Flight Plot

Page will automatically refresh every two minutes.


Map Options




Map Legend


Flown Route
Filed Route
Departure Airport
Arrival Airport
Navaid (VOR, NDB)
Fix

Horizontal Profiles

Position Reports

Time Latitude Longitude Heading Altitude Ground
Speed
10-Jan-18 14:18 34.422664 -119.835593 340 10ft 0kts
10-Jan-18 14:19 34.422664 -119.835593 340 10ft 0kts
10-Jan-18 14:20 34.422664 -119.835593 340 10ft 0kts
10-Jan-18 14:21 34.422664 -119.835593 340 10ft 0kts
10-Jan-18 14:22 34.422664 -119.835593 340 10ft 0kts
10-Jan-18 14:23 34.422664 -119.835593 340 10ft 0kts
10-Jan-18 14:24 34.422771 -119.836534 264 11ft 0kts
10-Jan-18 14:25 34.422799 -119.837124 313 12ft 10kts
10-Jan-18 14:26 34.426114 -119.838186 343 11ft 18kts
10-Jan-18 14:27 34.428089 -119.838800 344 13ft 18kts
10-Jan-18 14:28 34.430676 -119.839838 270 14ft 0kts
10-Jan-18 14:29 34.430676 -119.839838 270 14ft 0kts
10-Jan-18 14:30 34.430329 -119.840237 165 14ft 0kts
10-Jan-18 14:31 34.417921 -119.835601 154 247ft 81kts
10-Jan-18 14:32 34.397771 -119.824865 163 898ft 74kts
10-Jan-18 14:33 34.376892 -119.815099 162 1429ft 86kts
10-Jan-18 14:34 34.355753 -119.802237 127 2015ft 86kts
10-Jan-18 14:35 34.338953 -119.781106 118 2400ft 100kts
10-Jan-18 14:36 34.322655 -119.757182 114 2818ft 101kts
10-Jan-18 14:37 34.301250 -119.738706 153 3230ft 104kts
10-Jan-18 14:38 34.280633 -119.725679 111 3655ft 93kts
10-Jan-18 14:39 34.274867 -119.699378 100 4071ft 91kts
10-Jan-18 14:40 34.268390 -119.672095 107 4172ft 114kts
10-Jan-18 14:41 34.255323 -119.638679 108 4337ft 115kts
10-Jan-18 14:42 34.241437 -119.602878 108 4460ft 114kts
10-Jan-18 14:43 34.228344 -119.569688 108 4779ft 108kts
10-Jan-18 14:44 34.216576 -119.538947 106 5224ft 97kts
10-Jan-18 14:45 34.204845 -119.508474 106 5601ft 101kts
10-Jan-18 14:46 34.192711 -119.477657 106 5972ft 103kts
10-Jan-18 14:47 34.180055 -119.446289 106 6326ft 105kts
10-Jan-18 14:48 34.177175 -119.414508 66 6670ft 93kts
10-Jan-18 14:49 34.181368 -119.383355 66 6987ft 95kts
10-Jan-18 14:50 34.185209 -119.351879 66 7306ft 95kts
10-Jan-18 14:51 34.188597 -119.321963 67 7558ft 98kts
10-Jan-18 14:52 34.192933 -119.287188 67 7559ft 114kts
10-Jan-18 14:53 34.198267 -119.250179 67 7531ft 117kts
10-Jan-18 14:54 34.199873 -119.215141 80 7527ft 124kts
10-Jan-18 14:55 34.198576 -119.176967 76 7533ft 127kts
10-Jan-18 14:56 34.206996 -119.132823 63 6888ft 147kts
10-Jan-18 14:57 34.199276 -119.091992 66 6343ft 151kts
10-Jan-18 14:58 34.204347 -119.050083 99 5979ft 131kts
10-Jan-18 14:59 34.202997 -119.012670 108 5813ft 110kts
10-Jan-18 15:00 34.203452 -118.976541 89 5503ft 118kts
10-Jan-18 15:01 34.203896 -118.939528 80 5546ft 104kts
10-Jan-18 15:02 34.200687 -118.904651 86 5642ft 112kts
10-Jan-18 15:03 34.202174 -118.869346 80 5876ft 109kts
10-Jan-18 15:04 34.212120 -118.835505 68 5869ft 125kts
10-Jan-18 15:05 34.213094 -118.796891 118 5810ft 136kts
10-Jan-18 15:06 34.200075 -118.754246 85 5536ft 132kts
10-Jan-18 15:07 34.200283 -118.719087 69 5717ft 114kts
10-Jan-18 15:08 34.202443 -118.688467 83 6435ft 87kts
10-Jan-18 15:09 34.202015 -118.662942 114 7178ft 94kts
10-Jan-18 15:10 34.201218 -118.638118 79 7464ft 117kts
10-Jan-18 15:11 34.194083 -118.603574 101 7137ft 154kts
10-Jan-18 15:12 34.180646 -118.558599 115 6293ft 143kts
10-Jan-18 15:13 34.152957 -118.521519 121 4779ft 167kts
10-Jan-18 15:14 34.139946 -118.476112 53 3492ft 161kts
10-Jan-18 15:15 34.168829 -118.440893 2 2063ft 153kts
10-Jan-18 15:16 34.198406 -118.425709 56 1891ft 118kts
10-Jan-18 15:17 34.213813 -118.391340 87 1664ft 131kts
10-Jan-18 15:18 34.211435 -118.359980 166 1226ft 72kts
10-Jan-18 15:19 34.197117 -118.356206 163 706ft 31kts
10-Jan-18 15:20 34.195778 -118.356632 249 704ft 0kts
10-Jan-18 15:21 34.195283 -118.357070 294 704ft 6kts
10-Jan-18 15:22 34.195510 -118.357931 284 706ft 0kts

Navigation Log

Ident Type
1. KSBA Airport
2. KBUR Airport